Time;durP1;ratioP1;P1;durP2;ratioP2;P2;SDS_P1;SDS_P2;PMS_P1;PMS_P2;Temp;Humidity;BMP_temperature;BMP_pressure;BME280_temperature;BME280_humidity;BME280_pressure;Samples;Min_cycle;Max_cycle;Signal;HPM_P1;HPM_P2
2023/11/16 00:02:16;;;;;;;0.80;0.43;;;;;;;;;;5064386;28;20099;-60
2023/11/16 00:04:42;;;;;;;1.10;0.52;;;;;;;;;;5068479;28;20280;-59
2023/11/16 00:07:08;;;;;;;0.95;0.52;;;;;;;;;;5065445;28;20044;-60
2023/11/16 00:09:34;;;;;;;0.90;0.50;;;;;;;;;;5081129;28;20028;-59
2023/11/16 00:12:00;;;;;;;0.98;0.50;;;;;;;;;;5077831;28;20530;-59
2023/11/16 00:14:26;;;;;;;1.65;0.70;;;;;;;;;;5066409;28;20092;-59
2023/11/16 00:16:52;;;;;;;2.22;0.70;;;;;;;;;;5065410;28;20016;-59
2023/11/16 00:19:18;;;;;;;0.73;0.40;;;;;;;;;;5060998;28;20075;-59
2023/11/16 00:21:44;;;;;;;0.90;0.50;;;;;;;;;;5064730;28;20025;-58
2023/11/16 00:24:11;;;;;;;1.10;0.70;;;;;;;;;;5064344;28;20401;-59
2023/11/16 00:26:36;;;;;;;1.15;0.52;;;;;;;;;;5064975;28;20391;-59
2023/11/16 00:29:02;;;;;;;0.70;0.40;;;;;;;;;;5076300;28;20097;-59
2023/11/16 00:31:30;;;;;;;1.13;0.40;;;;;;;;;;5070472;28;20056;-59
2023/11/16 00:33:55;;;;;;;0.88;0.50;;;;;;;;;;5065326;28;20473;-59
2023/11/16 00:36:23;;;;;;;1.23;0.40;;;;;;;;;;5063084;28;20040;-59
2023/11/16 00:38:48;;;;;;;0.75;0.45;;;;;;;;;;5068790;28;20051;-59
2023/11/16 00:41:15;;;;;;;1.25;0.57;;;;;;;;;;5064850;28;20025;-59
2023/11/16 00:43:40;;;;;;;0.65;0.47;;;;;;;;;;5065498;28;20120;-59
2023/11/16 00:46:08;;;;;;;1.15;0.50;;;;;;;;;;5066501;28;20572;-59
2023/11/16 00:48:34;;;;;;;1.83;0.60;;;;;;;;;;5076570;28;20047;-59
2023/11/16 00:50:59;;;;;;;1.48;0.60;;;;;;;;;;5074893;28;20554;-59
2023/11/16 00:53:25;;;;;;;1.45;0.70;;;;;;;;;;5064049;28;20163;-59
2023/11/16 00:55:50;;;;;;;1.30;0.60;;;;;;;;;;5064338;28;20414;-59
2023/11/16 00:58:19;;;;;;;0.68;0.40;;;;;;;;;;5077928;28;20120;-59
2023/11/16 01:00:46;;;;;;;1.17;0.60;;;;;;;;;;5076414;28;20032;-59
2023/11/16 01:03:11;;;;;;;1.40;0.70;;;;;;;;;;5065549;28;20306;-60
2023/11/16 01:05:36;;;;;;;1.40;0.50;;;;;;;;;;5065637;28;20068;-59
2023/11/16 01:08:03;;;;;;;1.33;0.40;;;;;;;;;;5066178;28;20048;-59
2023/11/16 01:10:29;;;;;;;1.20;0.57;;;;;;;;;;5076898;28;20128;-59
2023/11/16 01:12:55;;;;;;;0.85;0.40;;;;;;;;;;5063699;28;20113;-59
2023/11/16 01:15:22;;;;;;;0.55;0.40;;;;;;;;;;5063063;28;20040;-59
2023/11/16 01:17:48;;;;;;;1.02;0.40;;;;;;;;;;5063249;28;20041;-60
2023/11/16 01:20:22;;;;;;;0.90;0.50;;;;;;;;;;5065093;28;20115;-60
2023/11/16 01:23:01;;;;;;;0.80;0.40;;;;;;;;;;5064447;28;20499;-60
2023/11/16 01:25:26;;;;;;;0.65;0.38;;;;;;;;;;5065254;28;20045;-60
2023/11/16 01:27:57;;;;;;;1.00;0.60;;;;;;;;;;5063374;28;20135;-60
2023/11/16 01:30:23;;;;;;;1.10;0.60;;;;;;;;;;5062780;28;20028;-59
2023/11/16 01:32:48;;;;;;;0.93;0.50;;;;;;;;;;5064416;28;20552;-59
2023/11/16 01:35:15;;;;;;;1.67;0.40;;;;;;;;;;5063532;28;20041;-59
2023/11/16 01:37:42;;;;;;;1.33;0.45;;;;;;;;;;5063612;28;20052;-60
2023/11/16 01:40:08;;;;;;;0.95;0.43;;;;;;;;;;5080608;28;20036;-60
2023/11/16 01:42:34;;;;;;;0.73;0.43;;;;;;;;;;5063413;28;20510;-60
2023/11/16 01:44:59;;;;;;;0.70;0.30;;;;;;;;;;5074025;28;20045;-60
2023/11/16 01:47:25;;;;;;;1.15;0.50;;;;;;;;;;5057865;28;20376;-60
2023/11/16 01:49:50;;;;;;;0.50;0.28;;;;;;;;;;5051448;28;20515;-60
2023/11/16 01:52:15;;;;;;;0.90;0.40;;;;;;;;;;5061744;28;20131;-59
2023/11/16 01:54:40;;;;;;;0.73;0.28;;;;;;;;;;5070759;28;20047;-60
2023/11/16 01:57:06;;;;;;;0.93;0.40;;;;;;;;;;5061705;28;20029;-59
2023/11/16 01:59:34;;;;;;;1.05;0.50;;;;;;;;;;5061920;28;20072;-59
2023/11/16 02:01:59;;;;;;;0.60;0.40;;;;;;;;;;5062092;28;20040;-59
2023/11/16 02:04:25;;;;;;;0.73;0.40;;;;;;;;;;5063307;28;20083;-60
2023/11/16 02:06:51;;;;;;;1.10;0.50;;;;;;;;;;5064704;28;20035;-60
2023/11/16 02:09:18;;;;;;;1.17;0.60;;;;;;;;;;5061679;28;20036;-59
2023/11/16 02:11:44;;;;;;;1.25;0.43;;;;;;;;;;5061703;28;20403;-60
2023/11/16 02:14:10;;;;;;;0.68;0.38;;;;;;;;;;5062544;28;20035;-59
2023/11/16 02:16:36;;;;;;;0.85;0.40;;;;;;;;;;5063353;28;20037;-59
2023/11/16 02:19:10;;;;;;;0.70;0.40;;;;;;;;;;5063646;28;20032;-59
2023/11/16 02:21:40;;;;;;;0.80;0.45;;;;;;;;;;5062276;28;20132;-59
2023/11/16 02:24:05;;;;;;;;;;;;;;;;;;5070171;28;20042;-60
2023/11/16 02:26:32;;;;;;;0.93;0.40;;;;;;;;;;5064437;28;20486;-60
2023/11/16 02:28:58;;;;;;;0.80;0.40;;;;;;;;;;5064143;28;20040;-60
2023/11/16 02:31:23;;;;;;;1.10;0.40;;;;;;;;;;5063965;28;20529;-59
2023/11/16 02:33:49;;;;;;;0.90;0.40;;;;;;;;;;5061281;28;20319;-59
2023/11/16 02:36:15;;;;;;;0.85;0.47;;;;;;;;;;5057822;28;20532;-59
2023/11/16 02:38:40;;;;;;;0.80;0.40;;;;;;;;;;5063322;28;20179;-60
2023/11/16 02:41:07;;;;;;;0.60;0.30;;;;;;;;;;5063933;28;20046;-59
2023/11/16 02:43:32;;;;;;;0.80;0.50;;;;;;;;;;5062891;28;20310;-60
2023/11/16 02:45:58;;;;;;;0.80;0.40;;;;;;;;;;5062756;28;20068;-59
2023/11/16 02:48:23;;;;;;;0.80;0.38;;;;;;;;;;5060633;28;20044;-60
2023/11/16 02:50:49;;;;;;;0.75;0.40;;;;;;;;;;5060026;28;20040;-60
2023/11/16 02:53:14;;;;;;;0.55;0.45;;;;;;;;;;5062296;28;20044;-60
2023/11/16 02:55:39;;;;;;;0.70;0.40;;;;;;;;;;5062590;28;20047;-60
2023/11/16 02:58:06;;;;;;;0.82;0.50;;;;;;;;;;5063260;28;20033;-59
2023/11/16 03:00:32;;;;;;;1.00;0.47;;;;;;;;;;5062960;28;20514;-60
2023/11/16 03:02:57;;;;;;;0.85;0.40;;;;;;;;;;5061818;28;20043;-59
2023/11/16 03:05:23;;;;;;;0.68;0.30;;;;;;;;;;5061312;28;20040;-60
2023/11/16 03:07:52;;;;;;;0.70;0.40;;;;;;;;;;5062371;28;20054;-59
2023/11/16 03:10:17;;;;;;;0.63;0.32;;;;;;;;;;5064127;28;20414;-60
2023/11/16 03:12:45;;;;;;;0.52;0.35;;;;;;;;;;5061974;28;20049;-60
2023/11/16 03:15:11;;;;;;;0.75;0.50;;;;;;;;;;5063329;28;20032;-60
2023/11/16 03:17:38;;;;;;;0.70;0.40;;;;;;;;;;5063894;28;20036;-59
2023/11/16 03:20:03;;;;;;;1.38;0.40;;;;;;;;;;5062874;28;20523;-60
2023/11/16 03:22:29;;;;;;;0.60;0.30;;;;;;;;;;5061869;28;20040;-59
2023/11/16 03:24:54;;;;;;;0.60;0.30;;;;;;;;;;5064301;28;20040;-60
2023/11/16 03:27:21;;;;;;;0.90;0.40;;;;;;;;;;5063224;28;20032;-60
2023/11/16 03:29:46;;;;;;;1.10;0.47;;;;;;;;;;5060898;28;20040;-60
2023/11/16 03:32:12;;;;;;;0.90;0.40;;;;;;;;;;5066542;28;20547;-60
2023/11/16 03:34:38;;;;;;;1.27;0.32;;;;;;;;;;5070502;28;20054;-59
2023/11/16 03:37:03;;;;;;;1.67;0.50;;;;;;;;;;5082396;28;20036;-60
2023/11/16 03:39:29;;;;;;;0.65;0.40;;;;;;;;;;5066948;28;20064;-59
2023/11/16 03:41:54;;;;;;;0.75;0.40;;;;;;;;;;5062557;28;20082;-59
2023/11/16 03:44:20;;;;;;;0.60;0.30;;;;;;;;;;5067267;28;20024;-63
2023/11/16 03:46:45;;;;;;;0.82;0.40;;;;;;;;;;5070871;28;20312;-59
2023/11/16 03:49:10;;;;;;;0.35;0.20;;;;;;;;;;5054405;28;20043;-60
2023/11/16 03:51:36;;;;;;;0.63;0.32;;;;;;;;;;5061261;28;20468;-59
2023/11/16 03:54:02;;;;;;;0.70;0.38;;;;;;;;;;5062170;28;20051;-58
2023/11/16 03:56:28;;;;;;;0.55;0.30;;;;;;;;;;5060941;28;20044;-58
2023/11/16 03:58:53;;;;;;;0.50;0.40;;;;;;;;;;5060843;28;20041;-58
2023/11/16 04:01:19;;;;;;;0.70;0.40;;;;;;;;;;5062299;28;20116;-59
2023/11/16 04:03:45;;;;;;;0.60;0.30;;;;;;;;;;5062570;28;20067;-59
2023/11/16 04:06:17;;;;;;;2.28;0.50;;;;;;;;;;5061395;28;20052;-59
2023/11/16 04:08:43;;;;;;;0.65;0.40;;;;;;;;;;5062405;28;20280;-59
2023/11/16 04:11:09;;;;;;;0.73;0.40;;;;;;;;;;5061346;28;20036;-60
2023/11/16 04:13:35;;;;;;;0.50;0.30;;;;;;;;;;5062231;28;20036;-60
2023/11/16 04:16:01;;;;;;;0.80;0.35;;;;;;;;;;5061655;28;22327;-60
2023/11/16 04:18:26;;;;;;;1.30;0.35;;;;;;;;;;5063954;28;20025;-61
2023/11/16 04:20:53;;;;;;;0.60;0.40;;;;;;;;;;5065430;28;20051;-59
2023/11/16 04:23:18;;;;;;;0.50;0.40;;;;;;;;;;5066006;28;20164;-59
2023/11/16 04:25:44;;;;;;;0.57;0.35;;;;;;;;;;5065010;28;20509;-59
2023/11/16 04:28:10;;;;;;;0.73;0.40;;;;;;;;;;5066249;28;20020;-59
2023/11/16 04:30:35;;;;;;;0.45;0.20;;;;;;;;;;5064386;28;20270;-59
2023/11/16 04:33:01;;;;;;;0.75;0.50;;;;;;;;;;5066587;28;20625;-59
2023/11/16 04:35:26;;;;;;;1.00;0.35;;;;;;;;;;5065236;28;20028;-59
2023/11/16 04:37:54;;;;;;;0.70;0.30;;;;;;;;;;5063475;28;20438;-58
2023/11/16 04:40:19;;;;;;;0.80;0.40;;;;;;;;;;5064315;28;20031;-58
2023/11/16 04:42:44;;;;;;;1.38;0.40;;;;;;;;;;5066636;28;20024;-59
2023/11/16 04:45:11;;;;;;;0.80;0.40;;;;;;;;;;5066912;28;20024;-58
2023/11/16 04:47:39;;;;;;;0.88;0.40;;;;;;;;;;5068495;28;20037;-60
2023/11/16 04:50:06;;;;;;;1.35;0.50;;;;;;;;;;5060971;28;20036;-60
2023/11/16 04:52:33;;;;;;;0.80;0.40;;;;;;;;;;5066213;28;20502;-60
2023/11/16 04:54:59;;;;;;;0.52;0.32;;;;;;;;;;5065290;28;20533;-59
2023/11/16 04:57:24;;;;;;;0.40;0.32;;;;;;;;;;5062757;28;20113;-59
2023/11/16 04:59:50;;;;;;;0.75;0.40;;;;;;;;;;5064399;28;20502;-59
2023/11/16 05:02:15;;;;;;;0.60;0.40;;;;;;;;;;5064009;28;20060;-60
2023/11/16 05:04:42;;;;;;;0.55;0.40;;;;;;;;;;5065975;28;20418;-59
2023/11/16 05:07:07;;;;;;;0.82;0.40;;;;;;;;;;5064061;28;20029;-61
2023/11/16 05:09:33;;;;;;;0.50;0.38;;;;;;;;;;5065205;28;20052;-60
2023/11/16 05:11:58;;;;;;;0.82;0.30;;;;;;;;;;5064771;28;20056;-60
2023/11/16 05:14:23;;;;;;;0.73;0.40;;;;;;;;;;5065026;28;20029;-60
2023/11/16 05:16:48;;;;;;;1.00;0.40;;;;;;;;;;5058256;28;20413;-60
2023/11/16 05:19:14;;;;;;;0.87;0.30;;;;;;;;;;5053966;28;20040;-60
2023/11/16 05:21:40;;;;;;;0.57;0.40;;;;;;;;;;5054996;28;20688;-60
2023/11/16 05:24:06;;;;;;;0.50;0.30;;;;;;;;;;5060433;28;20078;-60
2023/11/16 05:26:31;;;;;;;2.15;0.52;;;;;;;;;;5065125;28;20090;-60
2023/11/16 05:28:56;;;;;;;0.98;0.40;;;;;;;;;;5075330;28;20032;-60
2023/11/16 05:31:21;;;;;;;0.80;0.40;;;;;;;;;;5069583;28;20115;-60
2023/11/16 05:33:47;;;;;;;0.80;0.30;;;;;;;;;;5062920;28;20529;-60
2023/11/16 05:36:12;;;;;;;2.38;0.43;;;;;;;;;;5064425;28;20032;-58
2023/11/16 05:38:37;;;;;;;0.77;0.30;;;;;;;;;;5065060;28;20055;-61
2023/11/16 05:41:03;;;;;;;0.67;0.40;;;;;;;;;;5064601;28;20389;-59
2023/11/16 05:43:30;;;;;;;0.40;0.30;;;;;;;;;;5064458;28;20287;-59
2023/11/16 05:45:55;;;;;;;0.60;0.30;;;;;;;;;;5061926;28;21002;-59
2023/11/16 05:48:20;;;;;;;0.98;0.50;;;;;;;;;;5064271;28;20039;-59
2023/11/16 05:50:46;;;;;;;0.55;0.30;;;;;;;;;;5065321;28;20036;-60
2023/11/16 05:53:11;;;;;;;0.50;0.28;;;;;;;;;;5057258;28;20183;-61
2023/11/16 05:55:37;;;;;;;1.08;0.32;;;;;;;;;;5046355;28;20040;-58
2023/11/16 05:58:03;;;;;;;1.75;0.30;;;;;;;;;;5048480;28;20463;-58
2023/11/16 06:00:31;;;;;;;0.88;0.30;;;;;;;;;;5032956;28;20106;-58
2023/11/16 06:02:56;;;;;;;0.75;0.40;;;;;;;;;;5055505;28;20033;-59
2023/11/16 06:05:22;;;;;;;0.63;0.20;;;;;;;;;;5050938;28;20055;-57
2023/11/16 06:07:47;;;;;;;0.93;0.40;;;;;;;;;;5050865;28;20423;-59
2023/11/16 06:10:16;;;;;;;0.50;0.30;;;;;;;;;;5051880;28;20028;-58
2023/11/16 06:12:42;;;;;;;0.50;0.30;;;;;;;;;;5049451;28;20052;-58
2023/11/16 06:15:10;;;;;;;0.75;0.30;;;;;;;;;;5048873;28;20071;-58
2023/11/16 06:17:35;;;;;;;0.65;0.40;;;;;;;;;;5053124;28;20037;-58
2023/11/16 06:20:00;;;;;;;0.70;0.30;;;;;;;;;;5051046;28;21510;-58
2023/11/16 06:22:26;;;;;;;1.17;0.40;;;;;;;;;;5049178;28;20363;-58
2023/11/16 06:24:51;;;;;;;0.45;0.30;;;;;;;;;;5046687;28;20040;-58
2023/11/16 06:27:16;;;;;;;0.38;0.30;;;;;;;;;;5047696;28;20045;-59
2023/11/16 06:29:42;;;;;;;1.42;0.30;;;;;;;;;;5048358;28;20064;-58
2023/11/16 06:32:07;;;;;;;0.70;0.43;;;;;;;;;;5048503;28;20117;-58
2023/11/16 06:34:34;;;;;;;1.05;0.40;;;;;;;;;;5054026;28;20455;-58
2023/11/16 06:36:59;;;;;;;0.50;0.30;;;;;;;;;;5058044;28;20101;-60
2023/11/16 06:39:25;;;;;;;1.52;0.47;;;;;;;;;;5048706;28;20048;-61
2023/11/16 06:41:50;;;;;;;1.50;0.40;;;;;;;;;;5049054;28;20097;-58
2023/11/16 06:44:19;;;;;;;0.88;0.20;;;;;;;;;;5049366;28;20110;-58
2023/11/16 06:46:45;;;;;;;1.52;0.40;;;;;;;;;;5047751;28;20032;-59
2023/11/16 06:49:10;;;;;;;1.02;0.50;;;;;;;;;;5051202;28;20116;-58
2023/11/16 06:51:36;;;;;;;0.90;0.50;;;;;;;;;;5053764;28;20522;-57
2023/11/16 06:54:05;;;;;;;0.98;0.47;;;;;;;;;;5049704;28;20062;-58
2023/11/16 06:56:30;;;;;;;1.73;0.60;;;;;;;;;;5050042;28;20155;-58
2023/11/16 06:58:55;;;;;;;1.02;0.40;;;;;;;;;;5048773;28;20044;-58
2023/11/16 07:01:21;;;;;;;0.52;0.30;;;;;;;;;;5050427;28;20555;-56
2023/11/16 07:03:47;;;;;;;1.15;0.40;;;;;;;;;;5052816;28;20049;-59
2023/11/16 07:06:13;;;;;;;1.50;0.47;;;;;;;;;;5048115;28;21938;-59
2023/11/16 07:08:38;;;;;;;0.80;0.38;;;;;;;;;;5049409;28;20066;-59
2023/11/16 07:11:04;;;;;;;1.80;0.50;;;;;;;;;;5048635;28;20036;-57
2023/11/16 07:13:29;;;;;;;0.85;0.40;;;;;;;;;;5048772;28;20079;-58
2023/11/16 07:15:56;;;;;;;0.90;0.43;;;;;;;;;;5048250;28;20045;-58
2023/11/16 07:18:21;;;;;;;0.98;0.40;;;;;;;;;;5050122;28;20073;-56
2023/11/16 07:20:47;;;;;;;0.88;0.30;;;;;;;;;;5050822;28;20028;-56
2023/11/16 07:23:13;;;;;;;1.35;0.50;;;;;;;;;;5050219;28;20028;-58
2023/11/16 07:25:38;;;;;;;0.82;0.47;;;;;;;;;;5034420;28;20238;-57
2023/11/16 07:28:04;;;;;;;0.70;0.40;;;;;;;;;;5045244;28;20135;-58
2023/11/16 07:30:31;;;;;;;0.90;0.47;;;;;;;;;;5047585;28;20593;-59
2023/11/16 07:32:58;;;;;;;0.88;0.50;;;;;;;;;;5050888;28;20457;-54
2023/11/16 07:35:23;;;;;;;0.65;0.35;;;;;;;;;;5047374;28;20434;-59
2023/11/16 07:37:48;;;;;;;1.30;0.40;;;;;;;;;;5049170;28;20111;-61
2023/11/16 07:40:15;;;;;;;0.77;0.40;;;;;;;;;;5046876;28;20098;-58
2023/11/16 07:42:41;;;;;;;1.00;0.50;;;;;;;;;;5049858;28;20120;-58
2023/11/16 07:45:09;;;;;;;0.88;0.43;;;;;;;;;;5048874;28;20115;-58
2023/11/16 07:47:34;;;;;;;1.92;0.45;;;;;;;;;;5045522;28;20047;-57
2023/11/16 07:50:04;;;;;;;0.95;0.47;;;;;;;;;;5052094;28;20033;-59
2023/11/16 07:52:30;;;;;;;1.88;0.60;;;;;;;;;;5050347;28;20049;-57
2023/11/16 07:54:55;;;;;;;2.10;0.43;;;;;;;;;;5049940;28;20581;-58
2023/11/16 07:57:22;;;;;;;2.17;0.40;;;;;;;;;;5051524;28;20037;-58
2023/11/16 07:59:48;;;;;;;1.13;0.57;;;;;;;;;;5048367;28;20031;-57
2023/11/16 08:02:16;;;;;;;2.65;0.60;;;;;;;;;;5051830;28;20036;-57
2023/11/16 08:04:43;;;;;;;0.98;0.50;;;;;;;;;;5049788;28;20116;-57
2023/11/16 08:07:11;;;;;;;1.67;0.50;;;;;;;;;;5044575;28;20044;-63
2023/11/16 08:09:36;;;;;;;1.73;0.60;;;;;;;;;;5040467;28;20036;-60
2023/11/16 08:12:07;;;;;;;1.42;0.60;;;;;;;;;;5043576;28;20369;-58
2023/11/16 08:14:34;;;;;;;1.17;0.32;;;;;;;;;;5056332;28;20038;-58
2023/11/16 08:16:59;;;;;;;1.50;0.60;;;;;;;;;;5059033;28;20060;-57
2023/11/16 08:19:31;;;;;;;1.02;0.60;;;;;;;;;;5047842;28;20123;-57
2023/11/16 08:21:57;;;;;;;0.70;0.40;;;;;;;;;;5054545;28;20035;-58
2023/11/16 08:24:23;;;;;;;2.13;0.50;;;;;;;;;;5050197;28;20041;-58
2023/11/16 08:26:49;;;;;;;2.03;0.47;;;;;;;;;;5053046;28;20071;-59
2023/11/16 08:29:15;;;;;;;3.35;0.50;;;;;;;;;;5042505;28;20045;-59
2023/11/16 08:31:40;;;;;;;1.17;0.57;;;;;;;;;;5056052;28;20067;-60
2023/11/16 08:34:08;;;;;;;1.55;0.68;;;;;;;;;;5056109;28;20068;-60
2023/11/16 08:36:36;;;;;;;1.08;0.55;;;;;;;;;;5060214;28;20041;-61
2023/11/16 08:39:02;;;;;;;2.35;0.60;;;;;;;;;;5055198;28;20066;-59
2023/11/16 08:41:28;;;;;;;1.38;0.70;;;;;;;;;;5055974;28;20041;-58
2023/11/16 08:43:54;;;;;;;1.42;0.70;;;;;;;;;;5054157;28;20119;-58
2023/11/16 08:46:20;;;;;;;1.50;0.50;;;;;;;;;;5048999;28;20040;-60
2023/11/16 08:48:49;;;;;;;1.25;0.40;;;;;;;;;;5049457;28;20116;-59
2023/11/16 08:51:16;;;;;;;0.88;0.47;;;;;;;;;;5049890;28;20504;-60
2023/11/16 08:53:42;;;;;;;2.42;0.40;;;;;;;;;;5050214;28;20126;-59
2023/11/16 08:56:07;;;;;;;1.17;0.50;;;;;;;;;;5049503;28;20040;-59
2023/11/16 08:58:33;;;;;;;1.08;0.50;;;;;;;;;;5050278;28;20054;-57
2023/11/16 09:01:02;;;;;;;1.15;0.40;;;;;;;;;;5048869;28;20049;-57
2023/11/16 09:03:28;;;;;;;1.38;0.60;;;;;;;;;;5060674;28;20086;-57
2023/11/16 09:05:54;;;;;;;1.20;0.60;;;;;;;;;;5061248;28;20048;-57
2023/11/16 09:08:20;;;;;;;1.20;0.50;;;;;;;;;;5061032;28;20040;-60
2023/11/16 09:10:46;;;;;;;1.80;0.57;;;;;;;;;;5062556;28;20536;-60
2023/11/16 09:13:12;;;;;;;1.98;0.60;;;;;;;;;;5062098;28;20063;-59
2023/11/16 09:15:38;;;;;;;0.85;0.40;;;;;;;;;;5063287;28;20052;-58
2023/11/16 09:18:04;;;;;;;1.48;0.50;;;;;;;;;;5061115;28;20526;-58
2023/11/16 09:20:30;;;;;;;0.80;0.40;;;;;;;;;;5056522;28;20095;-59
2023/11/16 09:22:57;;;;;;;0.73;0.40;;;;;;;;;;5056001;28;20021;-58
2023/11/16 09:25:24;;;;;;;1.95;0.57;;;;;;;;;;5049939;28;20533;-59
2023/11/16 09:27:54;;;;;;;1.42;0.50;;;;;;;;;;5058045;28;20557;-59
2023/11/16 09:30:22;;;;;;;0.80;0.40;;;;;;;;;;5063302;28;20016;-58
2023/11/16 09:32:51;;;;;;;1.05;0.40;;;;;;;;;;5063148;28;20040;-58
2023/11/16 09:35:22;;;;;;;0.77;0.40;;;;;;;;;;5061970;28;20809;-59
2023/11/16 09:37:48;;;;;;;0.90;0.40;;;;;;;;;;5063401;28;20378;-59
2023/11/16 09:40:14;;;;;;;1.05;0.50;;;;;;;;;;5065099;28;20093;-57
2023/11/16 09:42:39;;;;;;;1.48;0.60;;;;;;;;;;5061484;28;20729;-59
2023/11/16 09:45:05;;;;;;;1.15;0.60;;;;;;;;;;5062039;28;20455;-59
2023/11/16 09:47:32;;;;;;;1.50;0.50;;;;;;;;;;5062022;28;20040;-59
2023/11/16 09:49:58;;;;;;;1.40;0.40;;;;;;;;;;5064207;28;20032;-59
2023/11/16 09:52:26;;;;;;;2.28;0.45;;;;;;;;;;5064809;28;20048;-58
2023/11/16 09:54:51;;;;;;;1.00;0.50;;;;;;;;;;5044970;28;20140;-59
2023/11/16 09:57:19;;;;;;;2.55;0.70;;;;;;;;;;5060115;28;20115;-59
2023/11/16 09:59:45;;;;;;;1.00;0.55;;;;;;;;;;5061755;28;20032;-59
2023/11/16 10:02:13;;;;;;;0.88;0.38;;;;;;;;;;5059635;28;20049;-59
2023/11/16 10:04:43;;;;;;;0.77;0.40;;;;;;;;;;5061545;28;20028;-59
2023/11/16 10:07:20;;;;;;;1.45;0.40;;;;;;;;;;5053662;28;20044;-59
2023/11/16 10:09:46;;;;;;;1.25;0.50;;;;;;;;;;5052721;28;20550;-60
2023/11/16 10:12:11;;;;;;;1.70;0.50;;;;;;;;;;5050452;28;20097;-60
2023/11/16 10:14:40;;;;;;;0.98;0.50;;;;;;;;;;5048792;28;20036;-59
2023/11/16 10:17:05;;;;;;;0.63;0.32;;;;;;;;;;5048766;28;20121;-59
2023/11/16 10:19:31;;;;;;;1.60;0.50;;;;;;;;;;5053155;28;20086;-60
2023/11/16 10:21:59;;;;;;;0.98;0.40;;;;;;;;;;5050361;28;20036;-60
2023/11/16 10:24:25;;;;;;;3.10;0.50;;;;;;;;;;5050298;28;20109;-60
2023/11/16 10:26:54;;;;;;;1.30;0.30;;;;;;;;;;5050411;28;20119;-60
2023/11/16 10:29:20;;;;;;;1.15;0.45;;;;;;;;;;5036896;28;20053;-60
2023/11/16 10:31:46;;;;;;;0.73;0.38;;;;;;;;;;5049950;28;20041;-60
2023/11/16 10:34:12;;;;;;;1.38;0.43;;;;;;;;;;5051785;28;20040;-60
2023/11/16 10:36:38;;;;;;;2.20;0.60;;;;;;;;;;5047711;28;20134;-59
2023/11/16 10:39:04;;;;;;;1.08;0.50;;;;;;;;;;5049656;28;20125;-60
2023/11/16 10:41:30;;;;;;;1.02;0.32;;;;;;;;;;5048956;28;20508;-58
2023/11/16 10:43:56;;;;;;;0.88;0.38;;;;;;;;;;5048483;28;20033;-59
2023/11/16 10:46:22;;;;;;;0.88;0.57;;;;;;;;;;5048350;28;20033;-59
2023/11/16 10:48:49;;;;;;;0.85;0.38;;;;;;;;;;5045675;28;20112;-58
2023/11/16 10:51:14;;;;;;;0.50;0.30;;;;;;;;;;5047966;28;20047;-58
2023/11/16 10:53:40;;;;;;;0.90;0.40;;;;;;;;;;5047234;28;20041;-59
2023/11/16 10:56:09;;;;;;;1.67;0.47;;;;;;;;;;5046869;28;20369;-58
2023/11/16 10:58:38;;;;;;;2.47;0.30;;;;;;;;;;5048309;28;20044;-58
2023/11/16 11:01:07;;;;;;;1.75;0.50;;;;;;;;;;5047765;28;20045;-58
2023/11/16 11:03:35;;;;;;;0.97;0.43;;;;;;;;;;5047630;28;20032;-57
2023/11/16 11:06:00;;;;;;;0.98;0.40;;;;;;;;;;5048726;28;20037;-58
2023/11/16 11:08:40;;;;;;;1.00;0.30;;;;;;;;;;5048710;28;20044;-58
2023/11/16 11:11:07;;;;;;;1.23;0.40;;;;;;;;;;5045621;28;20418;-57
2023/11/16 11:13:32;;;;;;;0.98;0.40;;;;;;;;;;5041821;28;20137;-58
2023/11/16 11:16:04;;;;;;;0.82;0.40;;;;;;;;;;5050102;28;20221;-58
2023/11/16 11:18:30;;;;;;;1.20;0.40;;;;;;;;;;5047415;28;20096;-58
2023/11/16 11:21:07;;;;;;;0.75;0.30;;;;;;;;;;5047387;28;20061;-59
2023/11/16 11:23:33;;;;;;;1.00;0.30;;;;;;;;;;5030777;28;20402;-57
2023/11/16 11:26:03;;;;;;;1.05;0.45;;;;;;;;;;5053306;28;20043;-57
2023/11/16 11:28:28;;;;;;;1.00;0.40;;;;;;;;;;5056394;28;20037;-59
2023/11/16 11:30:54;;;;;;;0.87;0.40;;;;;;;;;;5046082;28;20033;-59
2023/11/16 11:33:39;;;;;;;1.30;0.40;;;;;;;;;;5060620;28;20390;-58
2023/11/16 11:36:08;;;;;;;0.90;0.47;;;;;;;;;;5059108;28;20048;-58
2023/11/16 11:38:36;;;;;;;0.95;0.32;;;;;;;;;;5067739;28;20110;-59
2023/11/16 11:41:06;;;;;;;1.38;0.50;;;;;;;;;;5057353;28;20124;-59
2023/11/16 11:43:31;;;;;;;0.40;0.28;;;;;;;;;;5072053;28;20422;-58
2023/11/16 11:45:57;;;;;;;0.93;0.43;;;;;;;;;;5058277;28;20043;-59
2023/11/16 11:48:23;;;;;;;1.45;0.50;;;;;;;;;;5064046;28;20031;-59
2023/11/16 11:50:50;;;;;;;0.77;0.43;;;;;;;;;;5057183;28;20037;-58
2023/11/16 11:53:16;;;;;;;1.38;0.52;;;;;;;;;;5055456;28;20049;-58
2023/11/16 11:55:43;;;;;;;0.63;0.40;;;;;;;;;;5064932;28;20046;-58
2023/11/16 11:58:09;;;;;;;0.65;0.32;;;;;;;;;;5059683;28;20028;-59
2023/11/16 12:00:34;;;;;;;0.80;0.40;;;;;;;;;;5059308;28;20506;-57
2023/11/16 12:02:59;;;;;;;0.75;0.32;;;;;;;;;;5061015;28;20286;-57
2023/11/16 12:05:25;;;;;;;1.17;0.50;;;;;;;;;;5059744;28;20032;-58
2023/11/16 12:07:59;;;;;;;1.33;0.40;;;;;;;;;;5053165;28;20048;-56
2023/11/16 12:10:24;;;;;;;0.65;0.30;;;;;;;;;;5059801;28;20898;-58
2023/11/16 12:12:50;;;;;;;0.73;0.32;;;;;;;;;;5058816;28;20114;-58
2023/11/16 12:15:15;;;;;;;0.90;0.25;;;;;;;;;;5072239;28;20120;-56
2023/11/16 12:17:40;;;;;;;0.93;0.30;;;;;;;;;;5051857;28;20455;-56
2023/11/16 12:20:09;;;;;;;0.65;0.30;;;;;;;;;;5057282;28;20083;-57
2023/11/16 12:22:35;;;;;;;0.75;0.40;;;;;;;;;;5055667;28;20154;-57
2023/11/16 12:25:01;;;;;;;0.80;0.40;;;;;;;;;;5040489;28;20044;-58
2023/11/16 12:27:26;;;;;;;1.17;0.45;;;;;;;;;;5055345;28;20324;-57
2023/11/16 12:30:00;;;;;;;0.83;0.40;;;;;;;;;;5059461;28;20120;-56
2023/11/16 12:32:26;;;;;;;0.70;0.40;;;;;;;;;;5058370;28;20314;-58
2023/11/16 12:34:52;;;;;;;1.92;0.50;;;;;;;;;;5051474;28;20043;-57
2023/11/16 12:37:18;;;;;;;0.70;0.40;;;;;;;;;;5057948;28;20084;-57
2023/11/16 12:39:43;;;;;;;0.68;0.40;;;;;;;;;;5057798;28;20366;-57
2023/11/16 12:42:09;;;;;;;0.47;0.20;;;;;;;;;;5060343;28;20160;-57
2023/11/16 12:44:35;;;;;;;0.80;0.40;;;;;;;;;;5058528;28;20033;-57
2023/11/16 12:47:02;;;;;;;0.70;0.35;;;;;;;;;;5060752;28;20040;-57
2023/11/16 12:49:27;;;;;;;0.65;0.35;;;;;;;;;;5057335;28;20071;-57
2023/11/16 12:51:52;;;;;;;0.77;0.38;;;;;;;;;;5057735;28;20059;-56
2023/11/16 12:54:18;;;;;;;1.13;0.30;;;;;;;;;;5063523;27;20063;-57
2023/11/16 12:56:44;;;;;;;0.68;0.32;;;;;;;;;;5056005;28;20291;-58
2023/11/16 12:59:10;;;;;;;1.48;0.32;;;;;;;;;;5052793;28;20059;-55
2023/11/16 13:01:35;;;;;;;1.33;0.40;;;;;;;;;;5057995;28;20052;-57
2023/11/16 13:04:05;;;;;;;0.60;0.30;;;;;;;;;;5055739;28;20290;-57
2023/11/16 13:06:31;;;;;;;0.93;0.45;;;;;;;;;;5052078;28;20098;-56
2023/11/16 13:08:57;;;;;;;1.30;0.35;;;;;;;;;;5058642;28;20037;-58
2023/11/16 13:11:22;;;;;;;0.77;0.47;;;;;;;;;;5054249;28;20581;-56
2023/11/16 13:13:47;;;;;;;0.50;0.30;;;;;;;;;;5053489;28;20430;-57
2023/11/16 13:16:14;;;;;;;0.70;0.40;;;;;;;;;;5053027;28;20128;-55
2023/11/16 13:18:40;;;;;;;0.65;0.28;;;;;;;;;;5052168;28;20513;-56
2023/11/16 13:21:09;;;;;;;1.10;0.32;;;;;;;;;;5053614;28;20119;-56
2023/11/16 13:23:39;;;;;;;0.83;0.30;;;;;;;;;;5056240;28;20041;-59
2023/11/16 13:26:04;;;;;;;0.40;0.20;;;;;;;;;;5060458;28;20036;-58
2023/11/16 13:28:30;;;;;;;0.65;0.20;;;;;;;;;;5061349;28;20074;-58
2023/11/16 13:30:55;;;;;;;0.60;0.40;;;;;;;;;;5062969;28;20463;-56
2023/11/16 13:33:21;;;;;;;0.30;0.20;;;;;;;;;;5062983;28;20325;-57
2023/11/16 13:35:47;;;;;;;0.50;0.30;;;;;;;;;;5061290;28;20294;-56
2023/11/16 13:38:12;;;;;;;0.50;0.30;;;;;;;;;;5062495;28;20494;-56
2023/11/16 13:40:37;;;;;;;0.80;0.40;;;;;;;;;;5064440;28;20047;-56
2023/11/16 13:43:03;;;;;;;0.60;0.30;;;;;;;;;;5061287;28;20047;-56
2023/11/16 13:45:29;;;;;;;0.80;0.40;;;;;;;;;;5062552;28;20060;-56
2023/11/16 13:47:54;;;;;;;0.75;0.30;;;;;;;;;;5062328;28;20040;-57
2023/11/16 13:50:20;;;;;;;0.63;0.40;;;;;;;;;;5064126;28;20036;-57
2023/11/16 13:52:45;;;;;;;0.55;0.32;;;;;;;;;;5063417;28;20513;-57
2023/11/16 13:55:11;;;;;;;0.85;0.40;;;;;;;;;;5061581;28;20993;-58
2023/11/16 13:57:38;;;;;;;0.90;0.35;;;;;;;;;;5059058;28;20166;-58
2023/11/16 14:00:04;;;;;;;0.88;0.30;;;;;;;;;;5057094;28;20547;-57
2023/11/16 14:02:29;;;;;;;0.43;0.30;;;;;;;;;;5058638;28;20040;-57
2023/11/16 14:04:54;;;;;;;0.33;0.23;;;;;;;;;;5055866;28;20037;-56
2023/11/16 14:07:25;;;;;;;0.70;0.38;;;;;;;;;;5057039;28;20372;-57
2023/11/16 14:09:51;;;;;;;0.55;0.22;;;;;;;;;;5056474;28;20044;-58
2023/11/16 14:12:17;;;;;;;1.60;0.40;;;;;;;;;;5056464;28;20131;-56
2023/11/16 14:14:43;;;;;;;0.50;0.30;;;;;;;;;;5056110;28;20568;-55
2023/11/16 14:17:08;;;;;;;0.60;0.20;;;;;;;;;;5059626;28;20494;-57
2023/11/16 14:19:34;;;;;;;0.40;0.30;;;;;;;;;;5059898;28;20120;-55
2023/11/16 14:22:00;;;;;;;0.80;0.30;;;;;;;;;;5062013;28;20045;-55
2023/11/16 14:24:25;;;;;;;0.80;0.30;;;;;;;;;;5062129;28;20025;-56
2023/11/16 14:26:50;;;;;;;0.60;0.30;;;;;;;;;;5063893;28;20480;-56
2023/11/16 14:29:16;;;;;;;0.80;0.40;;;;;;;;;;5062724;28;20059;-56
2023/11/16 14:31:41;;;;;;;1.20;0.30;;;;;;;;;;5062087;28;20430;-57
2023/11/16 14:34:06;;;;;;;0.60;0.32;;;;;;;;;;5062479;28;20044;-57
2023/11/16 14:36:33;;;;;;;0.88;0.30;;;;;;;;;;5063833;28;20098;-56
2023/11/16 14:38:58;;;;;;;1.15;0.40;;;;;;;;;;5060449;28;20043;-56